Time;durP1;ratioP1;P1;durP2;ratioP2;P2;SDS_P1;SDS_P2;PMS_P1;PMS_P2;Temp;Humidity;BMP_temperature;BMP_pressure;BME280_temperature;BME280_humidity;BME280_pressure;Samples;Min_cycle;Max_cycle;Signal;HPM_P1;HPM_P2
2022/04/18 00:00:53;;;;;;;;;;;24.50;33.00;;;;;;5071203;28;1011;-39
2022/04/18 00:03:21;;;;;;;;;;;24.50;33.20;;;;;;5072675;28;1909;-39
2022/04/18 00:05:48;;;;;;;;;;;24.50;33.50;;;;;;5071147;28;1250;-40
2022/04/18 00:08:14;;;;;;;;;;;24.50;33.70;;;;;;5073033;28;865;-40
2022/04/18 00:10:41;;;;;;;;;;;24.40;33.90;;;;;;5072097;28;1023;-40
2022/04/18 00:13:08;;;;;;;;;;;24.50;34.20;;;;;;5072480;28;1083;-40
2022/04/18 00:15:34;;;;;;;;;;;24.50;34.30;;;;;;5072301;28;1018;-39
2022/04/18 00:18:01;;;;;;;;;;;24.50;34.70;;;;;;5072826;28;964;-39
2022/04/18 00:20:29;;;;;;;;;;;24.50;34.80;;;;;;5072704;28;1036;-39
2022/04/18 00:22:56;;;;;;;;;;;24.50;34.90;;;;;;5071222;28;1894;-40
2022/04/18 00:25:23;;;;;;;;;;;24.50;35.00;;;;;;5072468;28;1019;-39
2022/04/18 00:27:50;;;;;;;;;;;24.50;35.10;;;;;;5072037;28;1465;-40
2022/04/18 00:30:17;;;;;;;;;;;24.50;35.30;;;;;;5072141;28;1036;-39
2022/04/18 00:32:44;;;;;;;;;;;24.50;35.30;;;;;;5071409;28;1071;-40
2022/04/18 00:35:11;;;;;;;;;;;24.50;35.40;;;;;;5072036;28;931;-39
2022/04/18 00:37:40;;;;;;;;;;;24.60;35.60;;;;;;5070780;28;854;-40
2022/04/18 00:40:08;;;;;;;;;;;24.50;35.60;;;;;;5070401;28;1448;-40
2022/04/18 00:42:35;;;;;;;;;;;24.60;35.70;;;;;;5070626;28;1902;-39
2022/04/18 00:45:02;;;;;;;;;;;24.60;35.70;;;;;;5070773;28;1027;-40
2022/04/18 00:47:29;;;;;;;;;;;24.60;35.90;;;;;;5071132;28;919;-39
2022/04/18 00:49:55;;;;;;;;;;;24.60;35.90;;;;;;5070188;28;955;-40
2022/04/18 00:52:22;;;;;;;;;;;24.60;36.00;;;;;;5069819;28;980;-39
2022/04/18 00:54:51;;;;;;;;;;;24.60;35.90;;;;;;5069019;28;1852;-39
2022/04/18 00:57:18;;;;;;;;;;;24.60;36.10;;;;;;5071746;28;873;-40
2022/04/18 00:59:45;;;;;;;;;;;24.60;36.10;;;;;;5070474;28;1047;-39
2022/04/18 01:02:13;;;;;;;;;;;24.60;36.10;;;;;;5070564;28;1909;-40
2022/04/18 01:04:39;;;;;;;;;;;24.60;36.20;;;;;;5071677;28;1026;-39
2022/04/18 01:07:06;;;;;;;;;;;24.50;36.30;;;;;;5070097;28;1019;-40
2022/04/18 01:09:33;;;;;;;;;;;24.60;36.40;;;;;;5071293;28;875;-39
2022/04/18 01:12:02;;;;;;;;;;;24.60;36.40;;;;;;5069326;28;961;-40
2022/04/18 01:14:28;;;;;;;;;;;24.60;36.50;;;;;;5072598;28;1231;-39
2022/04/18 01:16:55;;;;;;;;;;;24.50;36.50;;;;;;5073359;28;1042;-39
2022/04/18 01:19:22;;;;;;;;;;;24.60;36.50;;;;;;5072803;28;964;-39
2022/04/18 01:21:50;;;;;;;;;;;24.60;36.60;;;;;;5073581;28;1062;-40
2022/04/18 01:29:45;;;;;;;;;;;24.50;36.70;;;;;;5072290;28;888;-40
2022/04/18 01:32:12;;;;;;;;;;;24.60;36.80;;;;;;5072482;28;1062;-39
2022/04/18 01:34:39;;;;;;;;;;;24.50;36.70;;;;;;5072751;28;861;-39
2022/04/18 01:37:06;;;;;;;;;;;24.60;36.70;;;;;;5073314;28;1864;-39
2022/04/18 01:39:33;;;;;;;;;;;24.60;36.80;;;;;;5073416;28;1076;-39
2022/04/18 01:42:00;;;;;;;;;;;24.60;36.80;;;;;;5072924;28;920;-39
2022/04/18 01:44:28;;;;;;;;;;;24.60;36.80;;;;;;5073601;28;1988;-39
2022/04/18 01:46:55;;;;;;;;;;;24.60;36.80;;;;;;5072230;28;980;-40
2022/04/18 01:49:22;;;;;;;;;;;24.60;36.80;;;;;;5073447;28;1052;-40
2022/04/18 01:51:49;;;;;;;;;;;24.60;36.90;;;;;;5072372;28;1124;-39
2022/04/18 01:54:17;;;;;;;;;;;24.50;36.90;;;;;;5073188;28;1007;-39
2022/04/18 01:56:44;;;;;;;;;;;24.60;37.00;;;;;;5072393;28;1782;-39
2022/04/18 01:59:11;;;;;;;;;;;24.60;36.90;;;;;;5073293;28;897;-39
2022/04/18 02:01:37;;;;;;;;;;;24.60;37.00;;;;;;5075106;28;1799;-42
2022/04/18 02:04:04;;;;;;;;;;;24.60;37.00;;;;;;5077412;28;1910;-39
2022/04/18 02:06:31;;;;;;;;;;;24.60;37.10;;;;;;5075577;28;928;-38
2022/04/18 02:08:58;;;;;;;;;;;24.50;37.10;;;;;;5077607;28;1027;-38
2022/04/18 02:11:26;;;;;;;;;;;24.50;37.20;;;;;;5074933;28;1457;-39
2022/04/18 02:13:53;;;;;;;;;;;24.50;37.20;;;;;;5077091;28;1038;-39
2022/04/18 02:19:22;;;;;;;;;;;24.50;37.40;;;;;;5077130;28;642;-39
2022/04/18 02:21:49;;;;;;;;;;;24.50;37.40;;;;;;5077331;28;1090;-39
2022/04/18 02:24:16;;;;;;;;;;;24.50;37.40;;;;;;5076641;28;1909;-40
2022/04/18 02:26:44;;;;;;;;;;;24.50;37.40;;;;;;5076177;28;1015;-39
2022/04/18 02:29:10;;;;;;;;;;;24.50;37.40;;;;;;5077429;28;939;-40
2022/04/18 02:32:47;;;;;;;;;;;24.50;37.50;;;;;;5073740;28;1005;-40
2022/04/18 02:34:24;;;;;;;;;;;24.50;37.40;;;;;;5071575;28;1101;-40
2022/04/18 02:36:50;;;;;;;;;;;24.50;37.60;;;;;;5075870;28;1049;-40
2022/04/18 02:39:17;;;;;;;;;;;24.40;37.50;;;;;;5072046;28;1013;-39
2022/04/18 02:41:45;;;;;;;;;;;24.50;37.60;;;;;;5070739;28;1083;-40
2022/04/18 02:44:12;;;;;;;;;;;24.40;37.60;;;;;;5072583;28;1906;-40
2022/04/18 02:46:39;;;;;;;;;;;24.50;37.60;;;;;;5076938;28;996;-39
2022/04/18 02:49:05;;;;;;;;;;;24.50;37.60;;;;;;5076146;28;995;-40
2022/04/18 02:51:32;;;;;;;;;;;24.50;37.60;;;;;;5077608;28;1001;-39
2022/04/18 02:53:59;;;;;;;;;;;24.50;37.70;;;;;;5077663;28;935;-39
2022/04/18 02:56:26;;;;;;;;;;;24.50;37.60;;;;;;5077150;28;1051;-40
2022/04/18 02:58:54;;;;;;;;;;;24.40;37.70;;;;;;5074584;28;977;-40
2022/04/18 03:01:21;;;;;;;;;;;24.40;37.70;;;;;;5075758;28;907;-40
2022/04/18 03:03:47;;;;;;;;;;;24.40;37.70;;;;;;5075669;28;1983;-39
2022/04/18 03:06:14;;;;;;;;;;;24.40;37.60;;;;;;5077086;28;989;-40
2022/04/18 03:08:41;;;;;;;;;;;24.50;37.70;;;;;;5077618;28;710;-39
2022/04/18 03:11:08;;;;;;;;;;;24.40;37.80;;;;;;5077736;28;874;-39
2022/04/18 03:13:35;;;;;;;;;;;24.40;37.80;;;;;;5075113;28;951;-40
2022/04/18 03:16:03;;;;;;;;;;;24.50;37.80;;;;;;5076732;28;1018;-39
2022/04/18 03:18:30;;;;;;;;;;;24.40;37.90;;;;;;5077501;28;1032;-39
2022/04/18 03:20:58;;;;;;;;;;;24.30;37.90;;;;;;5076450;28;1016;-39
2022/04/18 03:23:24;;;;;;;;;;;24.40;37.90;;;;;;5077156;28;1901;-41
2022/04/18 03:25:51;;;;;;;;;;;24.40;37.90;;;;;;5075685;28;999;-39
2022/04/18 03:28:18;;;;;;;;;;;24.30;37.90;;;;;;5075391;28;957;-39
2022/04/18 03:30:45;;;;;;;;;;;24.30;38.10;;;;;;5076437;28;984;-39
2022/04/18 03:33:13;;;;;;;;;;;24.40;38.00;;;;;;5075540;28;956;-39
2022/04/18 03:39:50;;;;;;;;;;;24.40;38.00;;;;;;5075588;28;945;-39
2022/04/18 03:41:11;;;;;;;;;;;24.40;38.00;;;;;;5075526;28;903;-40
2022/04/18 03:43:38;;;;;;;;;;;24.40;38.00;;;;;;5074701;28;1906;-40
2022/04/18 03:46:05;;;;;;;;;;;24.40;39.10;;;;;;5074959;28;994;-40
2022/04/18 03:48:33;;;;;;;;;;;24.40;37.90;;;;;;5075681;28;1010;-40
2022/04/18 03:51:00;;;;;;;;;;;24.40;38.00;;;;;;5075234;28;1146;-40
2022/04/18 03:53:26;;;;;;;;;;;24.30;38.00;;;;;;5075781;28;1006;-40
2022/04/18 03:55:53;;;;;;;;;;;24.30;38.10;;;;;;5075508;28;1010;-40
2022/04/18 03:58:20;;;;;;;;;;;24.30;38.10;;;;;;5075133;28;1000;-40
2022/04/18 04:00:47;;;;;;;;;;;24.30;38.30;;;;;;5075145;28;979;-40
2022/04/18 04:03:13;;;;;;;;;;;24.20;38.30;;;;;;5074832;28;1898;-40
2022/04/18 04:05:41;;;;;;;;;;;24.30;38.30;;;;;;5074471;28;943;-40
2022/04/18 04:08:08;;;;;;;;;;;24.20;38.30;;;;;;5075257;28;967;-40
2022/04/18 04:10:35;;;;;;;;;;;24.20;39.40;;;;;;5076220;28;913;-40
2022/04/18 04:13:02;;;;;;;;;;;24.20;39.50;;;;;;5075739;28;972;-40
2022/04/18 04:15:28;;;;;;;;;;;24.20;38.40;;;;;;5076734;28;960;-40
2022/04/18 04:17:55;;;;;;;;;;;24.20;38.40;;;;;;5074521;28;1002;-40
2022/04/18 04:20:23;;;;;;;;;;;24.20;38.50;;;;;;5074896;28;932;-40
2022/04/18 04:22:51;;;;;;;;;;;24.20;38.50;;;;;;5075002;28;956;-42
2022/04/18 04:25:18;;;;;;;;;;;24.20;38.40;;;;;;5075847;28;1913;-43
2022/04/18 04:27:45;;;;;;;;;;;24.20;38.50;;;;;;5074641;28;1004;-42
2022/04/18 04:30:12;;;;;;;;;;;24.20;38.50;;;;;;5074099;28;897;-42
2022/04/18 04:32:38;;;;;;;;;;;24.20;38.60;;;;;;5074661;28;988;-42
2022/04/18 04:35:06;;;;;;;;;;;24.20;38.50;;;;;;5074304;28;1102;-42
2022/04/18 04:37:32;;;;;;;;;;;24.20;38.50;;;;;;5074638;28;953;-42
2022/04/18 04:40:00;;;;;;;;;;;24.20;38.60;;;;;;5073910;28;1263;-42
2022/04/18 04:42:27;;;;;;;;;;;24.20;38.60;;;;;;5074442;28;1768;-42
2022/04/18 04:44:54;;;;;;;;;;;24.20;38.60;;;;;;5074554;28;1925;-42
2022/04/18 04:47:20;;;;;;;;;;;24.20;38.50;;;;;;5075095;28;967;-43
2022/04/18 04:49:47;;;;;;;;;;;24.20;38.60;;;;;;5074921;28;1007;-42
2022/04/18 04:52:14;;;;;;;;;;;24.10;38.50;;;;;;5074300;28;865;-42
2022/04/18 04:54:41;;;;;;;;;;;24.10;38.60;;;;;;5075329;28;1000;-43
2022/04/18 04:57:09;;;;;;;;;;;24.10;38.60;;;;;;5075479;28;926;-41
2022/04/18 04:59:35;;;;;;;;;;;24.10;38.60;;;;;;5074477;28;1019;-41
2022/04/18 05:02:02;;;;;;;;;;;24.10;38.60;;;;;;5075769;28;928;-40
2022/04/18 05:04:29;;;;;;;;;;;24.10;39.80;;;;;;5074823;28;1905;-40
2022/04/18 05:06:56;;;;;;;;;;;24.10;38.70;;;;;;5075500;28;1066;-40
2022/04/18 05:09:22;;;;;;;;;;;24.10;38.80;;;;;;5075068;28;964;-40
2022/04/18 05:11:49;;;;;;;;;;;24.00;38.80;;;;;;5075205;28;1231;-40
2022/04/18 05:14:17;;;;;;;;;;;24.00;38.80;;;;;;5074966;28;1025;-40
2022/04/18 05:16:44;;;;;;;;;;;24.00;38.90;;;;;;5073475;28;1030;-40
2022/04/18 05:19:10;;;;;;;;;;;24.00;38.90;;;;;;5075539;28;968;-40
2022/04/18 05:21:37;;;;;;;;;;;24.00;38.90;;;;;;5075692;28;1014;-40
2022/04/18 05:24:05;;;;;;;;;;;24.00;38.90;;;;;;5074113;28;1898;-40
2022/04/18 05:26:32;;;;;;;;;;;24.10;39.00;;;;;;5074772;28;1116;-40
2022/04/18 05:28:58;;;;;;;;;;;24.00;39.00;;;;;;5075215;28;964;-40
2022/04/18 05:31:26;;;;;;;;;;;24.00;38.90;;;;;;5074727;28;1002;-40
2022/04/18 05:33:53;;;;;;;;;;;24.00;39.00;;;;;;5075024;28;999;-40
2022/04/18 05:36:20;;;;;;;;;;;24.00;39.00;;;;;;5075624;28;1011;-40
2022/04/18 05:38:47;;;;;;;;;;;24.00;39.10;;;;;;5078748;28;1218;-40
2022/04/18 05:41:13;;;;;;;;;;;24.00;39.10;;;;;;5077920;28;1003;-40
2022/04/18 05:43:40;;;;;;;;;;;24.00;39.10;;;;;;5078421;28;1981;-40
2022/04/18 05:46:07;;;;;;;;;;;24.00;39.20;;;;;;5077960;28;936;-40
2022/04/18 05:48:35;;;;;;;;;;;24.00;39.20;;;;;;5077813;28;917;-40
2022/04/18 05:51:01;;;;;;;;;;;23.90;39.20;;;;;;5078604;28;986;-40
2022/04/18 05:53:28;;;;;;;;;;;23.90;39.20;;;;;;5077172;28;1036;-40
2022/04/18 05:55:55;;;;;;;;;;;23.90;39.30;;;;;;5078153;28;940;-40
2022/04/18 05:58:22;;;;;;;;;;;24.00;39.30;;;;;;5077330;28;959;-40
2022/04/18 06:00:49;;;;;;;;;;;24.00;39.30;;;;;;5076546;28;937;-40
2022/04/18 06:03:15;;;;;;;;;;;23.90;39.30;;;;;;5077574;28;959;-40
2022/04/18 06:05:43;;;;;;;;;;;23.90;39.30;;;;;;5077191;28;2039;-40
2022/04/18 06:08:10;;;;;;;;;;;24.00;39.50;;;;;;5077571;28;972;-40
2022/04/18 06:10:40;;;;;;;;;;;23.90;39.40;;;;;;5077443;28;940;-40
2022/04/18 06:13:08;;;;;;;;;;;24.00;39.50;;;;;;5077516;28;956;-40
2022/04/18 06:15:35;;;;;;;;;;;23.90;39.50;;;;;;5077522;28;1793;-40
2022/04/18 06:18:02;;;;;;;;;;;24.00;39.50;;;;;;5078064;28;873;-40
2022/04/18 06:20:29;;;;;;;;;;;23.90;39.40;;;;;;5077839;28;1013;-40
2022/04/18 06:22:57;;;;;;;;;;;24.00;39.30;;;;;;5076941;28;992;-40
2022/04/18 06:25:24;;;;;;;;;;;24.00;39.30;;;;;;5069121;28;2004;-40
2022/04/18 06:27:51;;;;;;;;;;;24.00;39.50;;;;;;5066790;28;886;-40
2022/04/18 06:30:18;;;;;;;;;;;24.00;39.60;;;;;;5072333;28;968;-40
2022/04/18 06:32:44;;;;;;;;;;;24.00;39.70;;;;;;5076633;28;689;-40
2022/04/18 06:35:12;;;;;;;;;;;24.00;39.70;;;;;;5075067;28;1004;-40
2022/04/18 06:37:38;;;;;;;;;;;24.00;39.70;;;;;;5076643;28;972;-40
2022/04/18 06:40:07;;;;;;;;;;;24.00;39.70;;;;;;5076052;28;1237;-40
2022/04/18 06:42:35;;;;;;;;;;;24.00;39.80;;;;;;5074050;28;980;-40
2022/04/18 06:45:02;;;;;;;;;;;24.00;39.80;;;;;;5074490;28;1983;-41
2022/04/18 06:47:28;;;;;;;;;;;24.00;39.70;;;;;;5075714;28;1002;-40
2022/04/18 06:49:55;;;;;;;;;;;24.00;39.70;;;;;;5074711;28;1016;-40
2022/04/18 06:52:22;;;;;;;;;;;24.00;39.80;;;;;;5075435;28;1015;-40
2022/04/18 06:54:49;;;;;;;;;;;24.00;39.70;;;;;;5075930;28;896;-40
2022/04/18 06:57:16;;;;;;;;;;;24.00;39.70;;;;;;5073890;28;993;-40
2022/04/18 06:59:45;;;;;;;;;;;24.00;39.70;;;;;;5073296;28;948;-40
2022/04/18 07:02:12;;;;;;;;;;;24.10;39.70;;;;;;5074405;28;897;-40
2022/04/18 07:04:39;;;;;;;;;;;24.10;39.80;;;;;;5074314;28;1902;-40
2022/04/18 07:07:06;;;;;;;;;;;24.00;39.80;;;;;;5073946;28;931;-40
2022/04/18 07:09:33;;;;;;;;;;;24.00;39.90;;;;;;5074220;28;1008;-40
2022/04/18 07:11:59;;;;;;;;;;;24.10;39.80;;;;;;5074324;28;1023;-40
2022/04/18 07:14:27;;;;;;;;;;;24.10;39.80;;;;;;5074306;28;1022;-40
2022/04/18 07:16:54;;;;;;;;;;;24.00;39.90;;;;;;5074212;28;1042;-40
2022/04/18 07:19:21;;;;;;;;;;;24.00;40.00;;;;;;5074806;28;928;-40
2022/04/18 07:21:47;;;;;;;;;;;24.10;40.00;;;;;;5075469;28;1128;-40
2022/04/18 07:24:14;;;;;;;;;;;24.20;39.90;;;;;;5074040;28;2038;-42
2022/04/18 07:26:41;;;;;;;;;;;24.20;39.90;;;;;;5075140;28;1014;-43
2022/04/18 07:29:08;;;;;;;;;;;24.10;40.10;;;;;;5073473;28;917;-43
2022/04/18 07:31:36;;;;;;;;;;;24.10;40.20;;;;;;5073348;28;996;-43
2022/04/18 07:34:02;;;;;;;;;;;24.10;40.20;;;;;;5073597;28;984;-43
2022/04/18 07:36:29;;;;;;;;;;;24.10;40.30;;;;;;5074565;28;951;-42
2022/04/18 07:38:56;;;;;;;;;;;24.10;40.30;;;;;;5073962;28;1096;-43
2022/04/18 07:41:23;;;;;;;;;;;24.10;40.90;;;;;;5073933;28;998;-44
2022/04/18 07:43:51;;;;;;;;;;;24.10;40.40;;;;;;5074446;28;1104;-42
2022/04/18 07:46:18;;;;;;;;;;;24.10;40.50;;;;;;5073579;28;1914;-42
2022/04/18 07:48:47;;;;;;;;;;;24.10;40.30;;;;;;5074106;28;977;-44
2022/04/18 07:53:58;;;;;;;;;;;24.20;40.30;;;;;;5072115;28;601;-42
2022/04/18 07:56:25;;;;;;;;;;;24.10;40.30;;;;;;5070868;28;1751;-43
2022/04/18 07:58:52;;;;;;;;;;;24.20;40.30;;;;;;5072495;28;997;-43
2022/04/18 08:01:19;;;;;;;;;;;24.10;40.40;;;;;;5071511;28;995;-42
2022/04/18 08:03:48;;;;;;;;;;;24.10;40.40;;;;;;5071936;28;896;-43
2022/04/18 08:06:16;;;;;;;;;;;24.10;40.50;;;;;;5071816;28;1910;-42
2022/04/18 08:08:43;;;;;;;;;;;24.10;40.50;;;;;;5070449;28;1007;-42
2022/04/18 08:11:11;;;;;;;;;;;24.20;40.30;;;;;;5062335;28;995;-43
2022/04/18 08:13:39;;;;;;;;;;;24.20;40.40;;;;;;5062565;28;1024;-44
2022/04/18 08:16:06;;;;;;;;;;;24.20;40.40;;;;;;5069593;28;1224;-42
2022/04/18 08:18:36;;;;;;;;;;;24.20;40.50;;;;;;5072761;28;939;-44
2022/04/18 08:21:04;;;;;;;;;;;24.20;40.40;;;;;;5072740;28;986;-42
2022/04/18 08:23:31;;;;;;;;;;;24.20;40.40;;;;;;5071237;28;990;-43
2022/04/18 08:25:58;;;;;;;;;;;24.20;40.40;;;;;;5071424;28;1985;-43
2022/04/18 08:28:25;;;;;;;;;;;24.20;40.40;;;;;;5072139;28;1003;-43
2022/04/18 08:30:52;;;;;;;;;;;24.20;40.50;;;;;;5071668;28;943;-43
2022/04/18 08:33:19;;;;;;;;;;;24.20;40.40;;;;;;5071636;28;1017;-42
2022/04/18 08:35:45;;;;;;;;;;;24.20;40.50;;;;;;5072375;28;975;-42
2022/04/18 08:38:13;;;;;;;;;;;24.20;40.40;;;;;;5072100;28;976;-42
2022/04/18 08:40:41;;;;;;;;;;;24.20;40.40;;;;;;5069657;28;1059;-42
2022/04/18 08:43:08;;;;;;;;;;;24.20;40.40;;;;;;5070379;28;700;-43
2022/04/18 08:45:37;;;;;;;;;;;24.20;40.40;;;;;;5068262;28;1922;-42
2022/04/18 08:53:34;;;;;;;;;;;24.20;40.40;;;;;;5068740;28;676;-43
2022/04/18 08:56:01;;;;;;;;;;;24.20;40.40;;;;;;5069753;28;1029;-41
2022/04/18 08:58:28;;;;;;;;;;;24.20;40.40;;;;;;5069920;28;969;-42
2022/04/18 09:00:56;;;;;;;;;;;24.20;40.50;;;;;;5069725;28;1303;-41
2022/04/18 09:03:23;;;;;;;;;;;24.20;40.40;;;;;;5070058;28;1306;-35
2022/04/18 09:05:50;;;;;;;;;;;24.30;40.30;;;;;;5070065;28;1983;-39
2022/04/18 09:08:17;;;;;;;;;;;24.10;40.60;;;;;;5070646;28;876;-37
2022/04/18 09:10:49;;;;;;;;;;;24.00;41.00;;;;;;5069694;28;977;-38
2022/04/18 09:13:16;;;;;;;;;;;23.90;41.20;;;;;;5070403;28;988;-38
2022/04/18 09:15:43;;;;;;;;;;;23.90;41.30;;;;;;5070546;28;985;-39
2022/04/18 09:18:11;;;;;;;;;;;23.80;41.40;;;;;;5058406;28;999;-38
2022/04/18 09:21:14;;;;;;;;;;;23.80;41.20;;;;;;5056200;28;985;-38
2022/04/18 09:23:41;;;;;;;;;;;23.80;41.20;;;;;;5050632;28;897;-36
2022/04/18 09:26:09;;;;;;;;;;;23.80;41.40;;;;;;5050429;28;1969;-38
2022/04/18 09:28:37;;;;;;;;;;;23.80;41.40;;;;;;5050902;28;1078;-38
2022/04/18 09:31:05;;;;;;;;;;;24.00;41.40;;;;;;5049042;28;917;-39
2022/04/18 09:33:32;;;;;;;;;;;24.30;41.00;;;;;;5051027;28;1043;-38
2022/04/18 09:36:06;;;;;;;;;;;24.30;40.80;;;;;;5051402;28;881;-40
2022/04/18 09:38:36;;;;;;;;;;;24.40;40.60;;;;;;5049960;28;936;-39
2022/04/18 09:41:06;;;;;;;;;;;24.40;40.30;;;;;;5054001;28;1289;-40
2022/04/18 09:43:41;;;;;;;;;;;24.40;40.00;;;;;;5069873;28;900;-39
2022/04/18 09:46:09;;;;;;;;;;;24.40;40.10;;;;;;5070768;28;1984;-39
2022/04/18 09:48:36;;;;;;;;;;;24.50;39.90;;;;;;5069858;28;969;-39
2022/04/18 09:51:08;;;;;;;;;;;24.50;41.10;;;;;;5069803;28;1008;-39
2022/04/18 09:53:35;;;;;;;;;;;24.50;40.00;;;;;;5070111;28;747;-38
2022/04/18 09:56:02;;;;;;;;;;;24.60;39.60;;;;;;5069482;28;1029;-39
2022/04/18 09:58:31;;;;;;;;;;;24.50;39.50;;;;;;5069201;28;1007;-39
2022/04/18 10:01:00;;;;;;;;;;;24.50;39.90;;;;;;5065934;28;1032;-38
2022/04/18 10:03:27;;;;;;;;;;;24.60;39.80;;;;;;5070238;28;913;-38
2022/04/18 10:05:55;;;;;;;;;;;24.70;39.60;;;;;;5069920;28;1910;-38
2022/04/18 10:08:21;;;;;;;;;;;24.70;39.50;;;;;;5069058;28;1052;-39
2022/04/18 10:10:50;;;;;;;;;;;24.80;39.50;;;;;;5067965;28;901;-39
2022/04/18 10:13:17;;;;;;;;;;;24.80;39.50;;;;;;5069092;28;981;-39
2022/04/18 10:15:44;;;;;;;;;;;24.80;39.70;;;;;;5069400;28;1855;-39
2022/04/18 10:18:14;;;;;;;;;;;24.80;39.80;;;;;;5069069;28;1009;-36
2022/04/18 10:20:50;;;;;;;;;;;24.80;39.80;;;;;;5069650;28;1005;-38
2022/04/18 10:23:24;;;;;;;;;;;24.80;39.70;;;;;;5071620;28;953;-38
2022/04/18 10:26:06;;;;;;;;;;;24.80;39.80;;;;;;5071767;28;1898;-38
2022/04/18 10:28:35;;;;;;;;;;;24.80;39.70;;;;;;5070228;28;1853;-38
2022/04/18 10:31:02;;;;;;;;;;;24.80;40.70;;;;;;5070945;28;1018;-38
2022/04/18 10:33:31;;;;;;;;;;;24.80;40.50;;;;;;5069915;28;924;-37
2022/04/18 10:36:01;;;;;;;;;;;24.80;40.00;;;;;;5070128;28;864;-38
2022/04/18 10:38:29;;;;;;;;;;;24.80;40.10;;;;;;5071721;28;991;-38
2022/04/18 10:41:14;;;;;;;;;;;24.80;39.70;;;;;;5070060;28;1119;-37
2022/04/18 10:43:58;;;;;;;;;;;24.80;39.80;;;;;;5068802;28;1785;-38
2022/04/18 10:46:24;;;;;;;;;;;24.80;39.80;;;;;;5069944;28;1910;-38
2022/04/18 10:48:56;;;;;;;;;;;24.80;39.90;;;;;;5069654;28;936;-38
2022/04/18 10:51:30;;;;;;;;;;;24.80;39.90;;;;;;5070136;28;957;-38
2022/04/18 10:54:10;;;;;;;;;;;24.80;39.90;;;;;;5070625;28;1007;-38
2022/04/18 10:56:47;;;;;;;;;;;24.80;40.00;;;;;;5069888;28;948;-38
2022/04/18 10:59:14;;;;;;;;;;;24.80;40.00;;;;;;5070284;28;984;-38
2022/04/18 11:01:42;;;;;;;;;;;24.80;40.00;;;;;;5070785;28;997;-38
2022/04/18 11:04:11;;;;;;;;;;;24.80;40.20;;;;;;5072447;28;877;-38
2022/04/18 11:06:48;;;;;;;;;;;24.80;40.00;;;;;;5072667;28;1906;-38
2022/04/18 11:09:16;;;;;;;;;;;24.80;40.10;;;;;;5070953;28;969;-38
2022/04/18 11:11:44;;;;;;;;;;;24.80;40.10;;;;;;5069784;28;971;-38
2022/04/18 11:14:15;;;;;;;;;;;24.80;40.20;;;;;;5069802;28;866;-38
2022/04/18 11:16:49;;;;;;;;;;;24.90;40.20;;;;;;5067512;28;1128;-38
2022/04/18 11:19:19;;;;;;;;;;;24.90;40.10;;;;;;5072020;28;924;-38
2022/04/18 11:22:05;;;;;;;;;;;24.90;40.20;;;;;;5073296;28;1102;-38
2022/04/18 11:24:39;;;;;;;;;;;24.90;40.30;;;;;;5062408;28;874;-38
2022/04/18 11:27:08;;;;;;;;;;;24.90;40.20;;;;;;5061520;28;1910;-38
2022/04/18 11:29:35;;;;;;;;;;;24.90;40.10;;;;;;5068117;28;940;-38
2022/04/18 11:32:02;;;;;;;;;;;24.90;40.10;;;;;;5072299;28;901;-38
2022/04/18 11:34:31;;;;;;;;;;;24.90;40.20;;;;;;5072922;28;960;-38
2022/04/18 11:36:58;;;;;;;;;;;24.90;40.30;;;;;;5072610;28;956;-37
2022/04/18 11:39:25;;;;;;;;;;;25.00;40.80;;;;;;5069905;28;1150;-36
2022/04/18 11:42:02;;;;;;;;;;;24.90;41.10;;;;;;5071753;28;1021;-38
2022/04/18 11:44:37;;;;;;;;;;;24.90;41.20;;;;;;5072030;28;846;-38
2022/04/18 11:47:06;;;;;;;;;;;24.90;41.30;;;;;;5072012;28;1913;-38
2022/04/18 11:49:34;;;;;;;;;;;24.90;41.30;;;;;;5068670;28;1659;-38
2022/04/18 11:52:01;;;;;;;;;;;24.90;42.10;;;;;;5070982;28;905;-38
2022/04/18 11:54:28;;;;;;;;;;;24.90;40.60;;;;;;5069795;28;973;-38
2022/04/18 11:56:58;;;;;;;;;;;24.90;40.70;;;;;;5071446;28;870;-38
2022/04/18 11:59:28;;;;;;;;;;;24.90;40.30;;;;;;5069928;28;1002;-38
2022/04/18 12:07:25;;;;;;;;;;;25.00;40.20;;;;;;5069258;28;1969;-38
2022/04/18 12:09:52;;;;;;;;;;;25.00;40.30;;;;;;5069487;28;1000;-38
2022/04/18 12:12:29;;;;;;;;;;;25.00;40.20;;;;;;5068742;28;945;-38
2022/04/18 12:14:55;;;;;;;;;;;25.00;40.10;;;;;;5069047;28;900;-38
2022/04/18 12:17:22;;;;;;;;;;;25.00;40.20;;;;;;5069300;28;924;-38
2022/04/18 12:19:52;;;;;;;;;;;25.00;40.10;;;;;;5070398;28;1002;-38
2022/04/18 12:22:22;;;;;;;;;;;25.00;40.00;;;;;;5069946;28;933;-38
2022/04/18 12:24:49;;;;;;;;;;;25.00;40.10;;;;;;5068871;28;920;-38
2022/04/18 12:27:16;;;;;;;;;;;25.00;40.10;;;;;;5069161;28;1910;-38
2022/04/18 12:29:43;;;;;;;;;;;25.00;40.10;;;;;;5068709;28;967;-38
2022/04/18 12:32:24;;;;;;;;;;;25.00;40.10;;;;;;5072783;28;1154;-38
2022/04/18 12:34:54;;;;;;;;;;;25.00;40.10;;;;;;5074005;28;1325;-39
2022/04/18 12:37:26;;;;;;;;;;;25.00;40.10;;;;;;5073054;28;1293;-38
2022/04/18 12:40:14;;;;;;;;;;;25.00;40.20;;;;;;5069725;28;1008;-38
2022/04/18 12:42:41;;;;;;;;;;;25.00;40.10;;;;;;5061929;28;1030;-38
2022/04/18 12:45:08;;;;;;;;;;;25.00;40.10;;;;;;5070821;28;1028;-38
2022/04/18 12:47:34;;;;;;;;;;;25.00;40.10;;;;;;5069367;28;1977;-39
2022/04/18 12:50:09;;;;;;;;;;;25.00;40.10;;;;;;5070455;28;1151;-37
2022/04/18 12:52:46;;;;;;;;;;;25.00;40.20;;;;;;5070380;28;1012;-38
2022/04/18 12:55:12;;;;;;;;;;;25.00;40.20;;;;;;5069504;28;990;-38
2022/04/18 12:57:39;;;;;;;;;;;25.00;40.00;;;;;;5071849;28;988;-38
2022/04/18 13:00:10;;;;;;;;;;;25.00;39.90;;;;;;5070151;28;893;-38
2022/04/18 13:02:36;;;;;;;;;;;25.00;39.80;;;;;;5069767;28;900;-38
2022/04/18 13:05:03;;;;;;;;;;;25.00;39.80;;;;;;5069109;28;1000;-37
2022/04/18 13:07:31;;;;;;;;;;;25.00;39.70;;;;;;5069867;28;1910;-38
2022/04/18 13:10:02;;;;;;;;;;;25.00;39.30;;;;;;5068496;28;983;-38
2022/04/18 13:12:30;;;;;;;;;;;24.90;40.60;;;;;;5068987;28;881;-38
2022/04/18 13:14:58;;;;;;;;;;;25.00;38.20;;;;;;5069966;28;940;-38
2022/04/18 13:17:24;;;;;;;;;;;25.00;36.50;;;;;;5069793;28;905;-39
2022/04/18 13:19:51;;;;;;;;;;;24.90;36.80;;;;;;5069519;28;929;-39
2022/04/18 13:22:18;;;;;;;;;;;24.80;36.60;;;;;;5070822;28;870;-40
2022/04/18 13:24:46;;;;;;;;;;;24.70;36.10;;;;;;5070152;28;960;-39
2022/04/18 13:27:22;;;;;;;;;;;24.80;34.20;;;;;;5070193;28;1910;-39
2022/04/18 13:29:50;;;;;;;;;;;24.90;32.90;;;;;;5071371;28;955;-39
2022/04/18 13:32:16;;;;;;;;;;;24.80;32.50;;;;;;5071309;28;1000;-39
2022/04/18 13:34:43;;;;;;;;;;;24.80;32.00;;;;;;5070937;28;1038;-39
2022/04/18 13:37:11;;;;;;;;;;;24.80;32.20;;;;;;5070717;28;944;-39
2022/04/18 13:39:37;;;;;;;;;;;24.80;32.80;;;;;;5068245;28;1216;-39
2022/04/18 13:42:06;;;;;;;;;;;24.70;33.10;;;;;;5069966;28;1016;-39
2022/04/18 13:44:32;;;;;;;;;;;24.60;33.20;;;;;;5070259;28;1028;-39
2022/04/18 13:46:59;;;;;;;;;;;24.60;33.10;;;;;;5069180;28;1898;-39
2022/04/18 13:49:26;;;;;;;;;;;24.60;33.60;;;;;;5069862;28;1757;-39
2022/04/18 13:51:53;;;;;;;;;;;24.80;32.90;;;;;;5069959;28;1139;-39
2022/04/18 13:54:19;;;;;;;;;;;24.70;31.50;;;;;;5068297;28;1000;-39
2022/04/18 13:56:47;;;;;;;;;;;24.70;32.50;;;;;;5068933;28;1064;-39
2022/04/18 13:59:15;;;;;;;;;;;24.70;33.00;;;;;;5072147;28;973;-40
2022/04/18 14:01:43;;;;;;;;;;;24.70;33.00;;;;;;5071542;28;1218;-39
2022/04/18 14:04:10;;;;;;;;;;;24.70;32.90;;;;;;5073021;28;906;-40
2022/04/18 14:06:38;;;;;;;;;;;24.90;33.80;;;;;;5072065;28;1921;-39
2022/04/18 14:09:04;;;;;;;;;;;24.80;32.50;;;;;;5071461;28;920;-39
2022/04/18 14:11:33;;;;;;;;;;;24.80;32.20;;;;;;5073507;28;1079;-39
2022/04/18 14:13:59;;;;;;;;;;;24.80;32.20;;;;;;5073838;28;873;-39
2022/04/18 14:21:57;;;;;;;;;;;24.80;30.70;;;;;;5072167;28;727;-39
2022/04/18 14:24:24;;;;;;;;;;;24.70;30.10;;;;;;5072613;28;921;-39
2022/04/18 14:26:51;;;;;;;;;;;24.60;30.50;;;;;;5071297;28;1985;-40
2022/04/18 14:29:18;;;;;;;;;;;24.50;29.60;;;;;;5074155;28;908;-40
2022/04/18 14:31:46;;;;;;;;;;;24.60;30.60;;;;;;5074241;28;1107;-39
2022/04/18 14:34:13;;;;;;;;;;;24.50;30.80;;;;;;5073262;28;1210;-39
2022/04/18 14:36:41;;;;;;;;;;;24.60;31.10;;;;;;5072107;28;1130;-40
2022/04/18 14:39:08;;;;;;;;;;;24.70;30.90;;;;;;5072424;28;1068;-40
2022/04/18 14:41:35;;;;;;;;;;;24.60;29.20;;;;;;5072894;28;905;-39
2022/04/18 14:44:02;;;;;;;;;;;24.60;28.20;;;;;;5073534;28;1502;-39
2022/04/18 14:46:29;;;;;;;;;;;24.60;27.80;;;;;;5072639;28;1973;-39
2022/04/18 14:48:57;;;;;;;;;;;24.50;28.50;;;;;;5073302;28;996;-39
2022/04/18 14:51:25;;;;;;;;;;;24.60;29.80;;;;;;5072677;28;955;-39
2022/04/18 14:53:52;;;;;;;;;;;24.60;30.30;;;;;;5074018;28;1024;-34
2022/04/18 14:56:19;;;;;;;;;;;24.60;29.50;;;;;;5073706;28;997;-34
2022/04/18 14:58:46;;;;;;;;;;;24.60;29.50;;;;;;5073106;28;692;-35
2022/04/18 15:01:13;;;;;;;;;;;24.60;30.10;;;;;;5072072;28;1041;-33
2022/04/18 15:03:40;;;;;;;;;;;24.70;30.40;;;;;;5071639;28;932;-34
2022/04/18 15:06:08;;;;;;;;;;;24.80;30.70;;;;;;5073257;28;1023;-34
2022/04/18 15:08:35;;;;;;;;;;;24.80;31.10;;;;;;5072334;28;1993;-34
2022/04/18 15:11:02;;;;;;;;;;;24.80;31.00;;;;;;5071040;28;886;-34